메인 페이지
METAR-TAF:

METAR-TAF

공항 :

스탠리, 포클랜드 제도

위도: 51-49S, 경도: 058-27W, 고도: 74m

현재 날씨관측

예보는 1 시간 4분 전, 01:50시(UTC)에 발표되었습니다.
서북서10kt
온도 9°C
습도 71%
기압 1010 hPa
시정 10km 이상
1500m 미만 상공 구름 및 적란운 없음

METAR: EGYP 130150Z 29010KT CAVOK 09/04 Q1010 BLU

시각: 23:54 (02:54 UTC)

예보

예보는 1 시간 14분 전, 01:40시(UTC)에 발표되었습니다.
예보 대상 시간: 13일 03시부터 13일 21시까지 (UTC)
북서8kt
시정 10km 이상
고도 4500ft 상공 구름 보통
전환 중
13일 03시부터 13일 05시까지 (UTC)
북북서15kt, 순간 최대 풍속 25kt
일시적
13일 04시부터 13일 12시까지 (UTC)
25kt, 순간 최대 풍속 35kt
확률 40% :
일시적
13일 04시부터 13일 21시까지 (UTC)
여러 방향의 바람 7kt
고도 700ft 상공 구름 보통
전환 중
13일 12시부터 13일 14시까지 (UTC)
25kt, 순간 최대 풍속 35kt
일시적
13일 14시부터 13일 21시까지 (UTC)
30kt, 순간 최대 풍속 45kt

TAF: EGYP 130140Z 1303/1321 31008KT 9999 SCT045 BECMG 1303/1305 34015G25KT 520003 TEMPO 1304/1312 35025G35KT 530003 PROB40 TEMPO 1304/1321 VRB07KT SCT007 560003 BECMG 1312/1314 35025G35KT TEMPO 1314/1321 35030G45KT 530003

4,000개 이상의 공항 관측 자료 및 예보 (METAR 및 TAF 보고).

지도상에서 검색 가능한 기상관측소가 노란 점과 빨간 점으로 표시되어 있습니다.

기상관측소 명을 보려면 표시 위로 마우스를 이동하세요.

날씨 관측과 예보를 보려면 클릭하세요.

지도 변경 : 확대하려면 엑스 표시가 있는 녹색 버튼, 축소하려면 빼기 표시가 있는 녹색 버튼, 다음 페이지의 지도를 보려면 녹색 화살표를 클릭하세요.


METAR-TAF: